Aviation Digital Data Service (ADDS)

Output produced by METARs form (2229 UTC 01 December 2021)
found at http://www.aviationweather.gov/metar/data/
 
METAR text: EGGW 012220Z AUTO 31012KT 9999 NCD 02/M01 Q1006
Conditions at: EGGW (LUTON AIRPORT , GB) observed 2220 UTC 01 December 2021
Temperature: 2.0°C (36°F)
Dewpoint: -1.0°C (30°F) [RH = 80%]
Pressure (altimeter): 29.70 inches Hg (1006.0 mb)
Winds: from the NW (310 degrees) at 14 MPH (12 knots; 6.2 m/s)
Visibility: 6 or more miles (10+ km)
Ceiling: at least 12,000 feet AGL
Clouds: sky clear below 12,000 feet AGL
Weather: no significant weather observed at this time

METAR text: EGGW 012150Z AUTO 32012KT 9999 NCD 02/M01 Q1006
Conditions at: EGGW (LUTON AIRPORT , GB) observed 2150 UTC 01 December 2021
Temperature: 2.0°C (36°F)
Dewpoint: -1.0°C (30°F) [RH = 80%]
Pressure (altimeter): 29.70 inches Hg (1006.0 mb)
Winds: from the NW (320 degrees) at 14 MPH (12 knots; 6.2 m/s)
Visibility: 6 or more miles (10+ km)
Ceiling: at least 12,000 feet AGL
Clouds: sky clear below 12,000 feet AGL
Weather: no significant weather observed at this time

METAR text: EGGW 012120Z AUTO 32011KT 9999 NCD 02/M00 Q1005
Conditions at: EGGW (LUTON AIRPORT , GB) observed 2120 UTC 01 December 2021
Temperature: 2.0°C (36°F)
Dewpoint: 0.0°C (32°F) [RH = 87%]
Pressure (altimeter): 29.68 inches Hg (1005.0 mb)
Winds: from the NW (320 degrees) at 13 MPH (11 knots; 5.7 m/s)
Visibility: 6 or more miles (10+ km)
Ceiling: at least 12,000 feet AGL
Clouds: sky clear below 12,000 feet AGL
Weather: no significant weather observed at this time

METAR text: EGGW 012050Z AUTO 34013KT 9999 NCD 03/00 Q1005
Conditions at: EGGW (LUTON AIRPORT , GB) observed 2050 UTC 01 December 2021
Temperature: 3.0°C (37°F)
Dewpoint: 0.0°C (32°F) [RH = 81%]
Pressure (altimeter): 29.68 inches Hg (1005.0 mb)
Winds: from the NNW (340 degrees) at 15 MPH (13 knots; 6.7 m/s)
Visibility: 6 or more miles (10+ km)
Ceiling: at least 12,000 feet AGL
Clouds: sky clear below 12,000 feet AGL
Weather: no significant weather observed at this time

METAR text: EGGW 012020Z AUTO 34014KT 9999 FEW023 03/01 Q1004
Conditions at: EGGW (LUTON AIRPORT , GB) observed 2020 UTC 01 December 2021
Temperature: 3.0°C (37°F)
Dewpoint: 1.0°C (34°F) [RH = 87%]
Pressure (altimeter): 29.65 inches Hg (1004.0 mb)
Winds: from the NNW (340 degrees) at 16 MPH (14 knots; 7.2 m/s)
Visibility: 6 or more miles (10+ km)
Ceiling: at least 12,000 feet AGL
Clouds: few clouds at 2300 feet AGL
Weather: no significant weather observed at this time

METAR text: EGGW 011950Z AUTO 35016KT 9999 FEW020 04/01 Q1004
Conditions at: EGGW (LUTON AIRPORT , GB) observed 1950 UTC 01 December 2021
Temperature: 4.0°C (39°F)
Dewpoint: 1.0°C (34°F) [RH = 81%]
Pressure (altimeter): 29.65 inches Hg (1004.0 mb)
Winds: from the N (350 degrees) at 18 MPH (16 knots; 8.2 m/s)
Visibility: 6 or more miles (10+ km)
Ceiling: at least 12,000 feet AGL
Clouds: few clouds at 2000 feet AGL
Weather: no significant weather observed at this time

METAR text: EGGW 011920Z AUTO 35014KT 9999 BKN019 BKN031 04/02 Q1003
Conditions at: EGGW (LUTON AIRPORT , GB) observed 1920 UTC 01 December 2021
Temperature: 4.0°C (39°F)
Dewpoint: 2.0°C (36°F) [RH = 87%]
Pressure (altimeter): 29.62 inches Hg (1003.0 mb)
Winds: from the N (350 degrees) at 16 MPH (14 knots; 7.2 m/s)
Visibility: 6 or more miles (10+ km)
Ceiling: 1900 feet AGL
Clouds: broken clouds at 1900 feet AGL
broken clouds at 3100 feet AGL
Weather: no significant weather observed at this time

METAR text: EGGW 011850Z AUTO 35016KT 9999 FEW018 BKN029 05/03 Q1002
Conditions at: EGGW (LUTON AIRPORT , GB) observed 1850 UTC 01 December 2021
Temperature: 5.0°C (41°F)
Dewpoint: 3.0°C (37°F) [RH = 87%]
Pressure (altimeter): 29.59 inches Hg (1002.0 mb)
Winds: from the N (350 degrees) at 18 MPH (16 knots; 8.2 m/s)
Visibility: 6 or more miles (10+ km)
Ceiling: 2900 feet AGL
Clouds: few clouds at 1800 feet AGL
broken clouds at 2900 feet AGL
Weather: no significant weather observed at this time

METAR text: EGGW 011820Z AUTO 34012KT 9999 -RA SCT012 BKN017 05/04 Q1001
Conditions at: EGGW (LUTON AIRPORT , GB) observed 1820 UTC 01 December 2021
Temperature: 5.0°C (41°F)
Dewpoint: 4.0°C (39°F) [RH = 93%]
Pressure (altimeter): 29.56 inches Hg (1001.0 mb)
Winds: from the NNW (340 degrees) at 14 MPH (12 knots; 6.2 m/s)
Visibility: 6 or more miles (10+ km)
Ceiling: 1700 feet AGL
Clouds: scattered clouds at 1200 feet AGL
broken clouds at 1700 feet AGL
Weather: -RA  (light rain)

METAR text: EGGW 011750Z AUTO 34012KT 9999 -RA SCT017 BKN027 05/04 Q1001
Conditions at: EGGW (LUTON AIRPORT , GB) observed 1750 UTC 01 December 2021
Temperature: 5.0°C (41°F)
Dewpoint: 4.0°C (39°F) [RH = 93%]
Pressure (altimeter): 29.56 inches Hg (1001.0 mb)
Winds: from the NNW (340 degrees) at 14 MPH (12 knots; 6.2 m/s)
Visibility: 6 or more miles (10+ km)
Ceiling: 2700 feet AGL
Clouds: scattered clouds at 1700 feet AGL
broken clouds at 2700 feet AGL
Weather: -RA  (light rain)

METAR text: EGGW 011720Z AUTO 34011KT 9999 -RA BKN019/// BKN035/// BKN041/// //////TCU 05/04 Q1000
Conditions at: EGGW (LUTON AIRPORT , GB) observed 1720 UTC 01 December 2021
Temperature: 5.0°C (41°F)
Dewpoint: 4.0°C (39°F) [RH = 93%]
Pressure (altimeter): 29.53 inches Hg (1000.0 mb)
Winds: from the NNW (340 degrees) at 13 MPH (11 knots; 5.7 m/s)
Visibility: 6 or more miles (10+ km)
Ceiling: 1900 feet AGL
Clouds: broken clouds at 1900 feet AGL
broken clouds at 3500 feet AGL
broken clouds at 4100 feet AGL
Weather: -RA  (light rain)

METAR text: EGGW 011650Z AUTO 34010KT 300V010 9999 -RA FEW009/// BKN013/// BKN020/// //////TCU 05/04 Q0999
Conditions at: EGGW (LUTON AIRPORT , GB) observed 1650 UTC 01 December 2021
Temperature: 5.0°C (41°F)
Dewpoint: 4.0°C (39°F) [RH = 93%]
Pressure (altimeter): 29.50 inches Hg (999.0 mb)
Winds: from the NNW (340 degrees) at 12 MPH (10 knots; 5.1 m/s)
Visibility: 6 or more miles (10+ km)
Ceiling: 1300 feet AGL
Clouds: few clouds at 900 feet AGL
broken clouds at 1300 feet AGL
broken clouds at 2000 feet AGL
Weather: -RA  (light rain)

METAR text: EGGW 011620Z AUTO 32014KT 9999 BKN015/// BKN019/// OVC032/// //////TCU 06/03 Q0999
Conditions at: EGGW (LUTON AIRPORT , GB) observed 1620 UTC 01 December 2021
Temperature: 6.0°C (43°F)
Dewpoint: 3.0°C (37°F) [RH = 81%]
Pressure (altimeter): 29.50 inches Hg (999.0 mb)
Winds: from the NW (320 degrees) at 16 MPH (14 knots; 7.2 m/s)
Visibility: 6 or more miles (10+ km)
Ceiling: 1500 feet AGL
Clouds: broken clouds at 1500 feet AGL
broken clouds at 1900 feet AGL
overcast cloud deck at 3200 feet AGL
Weather: no significant weather observed at this time

METAR text: EGGW 011550Z AUTO 31012KT 9999 BKN022/// BKN027/// OVC036/// //////TCU 07/03 Q0998
Conditions at: EGGW (LUTON AIRPORT , GB) observed 1550 UTC 01 December 2021
Temperature: 7.0°C (45°F)
Dewpoint: 3.0°C (37°F) [RH = 76%]
Pressure (altimeter): 29.47 inches Hg (998.0 mb)
Winds: from the NW (310 degrees) at 14 MPH (12 knots; 6.2 m/s)
Visibility: 6 or more miles (10+ km)
Ceiling: 2200 feet AGL
Clouds: broken clouds at 2200 feet AGL
broken clouds at 2700 feet AGL
overcast cloud deck at 3600 feet AGL
Weather: no significant weather observed at this time

METAR text: EGGW 011520Z AUTO 31015KT 9999 -RA SCT020 SCT047 07/04 Q0997
Conditions at: EGGW (LUTON AIRPORT , GB) observed 1520 UTC 01 December 2021
Temperature: 7.0°C (45°F)
Dewpoint: 4.0°C (39°F) [RH = 81%]
Pressure (altimeter): 29.44 inches Hg (997.0 mb)
Winds: from the NW (310 degrees) at 17 MPH (15 knots; 7.7 m/s)
Visibility: 6 or more miles (10+ km)
Ceiling: at least 12,000 feet AGL
Clouds: scattered clouds at 2000 feet AGL
scattered clouds at 4700 feet AGL
Weather: -RA  (light rain)

METAR text: EGGW 011450Z AUTO 29014KT 9999 -RA BKN021 08/04 Q0997
Conditions at: EGGW (LUTON AIRPORT , GB) observed 1450 UTC 01 December 2021
Temperature: 8.0°C (46°F)
Dewpoint: 4.0°C (39°F) [RH = 76%]
Pressure (altimeter): 29.44 inches Hg (997.0 mb)
Winds: from the WNW (290 degrees) at 16 MPH (14 knots; 7.2 m/s)
Visibility: 6 or more miles (10+ km)
Ceiling: 2100 feet AGL
Clouds: broken clouds at 2100 feet AGL
Weather: -RA  (light rain)

METAR text: EGGW 011420Z AUTO 30013KT 9999 BKN022/// //////TCU 08/04 Q0997
Conditions at: EGGW (LUTON AIRPORT , GB) observed 1420 UTC 01 December 2021
Temperature: 8.0°C (46°F)
Dewpoint: 4.0°C (39°F) [RH = 76%]
Pressure (altimeter): 29.44 inches Hg (997.0 mb)
Winds: from the WNW (300 degrees) at 15 MPH (13 knots; 6.7 m/s)
Visibility: 6 or more miles (10+ km)
Ceiling: 2200 feet AGL
Clouds: broken clouds at 2200 feet AGL
Weather: no significant weather observed at this time

METAR text: EGGW 011350Z AUTO 30015KT 9999 BKN023/// BKN028/// OVC047/// //////TCU 08/04 Q0997
Conditions at: EGGW (LUTON AIRPORT , GB) observed 1350 UTC 01 December 2021
Temperature: 8.0°C (46°F)
Dewpoint: 4.0°C (39°F) [RH = 76%]
Pressure (altimeter): 29.44 inches Hg (997.0 mb)
Winds: from the WNW (300 degrees) at 17 MPH (15 knots; 7.7 m/s)
Visibility: 6 or more miles (10+ km)
Ceiling: 2300 feet AGL
Clouds: broken clouds at 2300 feet AGL
broken clouds at 2800 feet AGL
overcast cloud deck at 4700 feet AGL
Weather: no significant weather observed at this time

METAR text: EGGW 011320Z AUTO 29016KT 9999 BKN025 BKN034 08/04 Q0996
Conditions at: EGGW (LUTON AIRPORT , GB) observed 1320 UTC 01 December 2021
Temperature: 8.0°C (46°F)
Dewpoint: 4.0°C (39°F) [RH = 76%]
Pressure (altimeter): 29.41 inches Hg (996.0 mb)
Winds: from the WNW (290 degrees) at 18 MPH (16 knots; 8.2 m/s)
Visibility: 6 or more miles (10+ km)
Ceiling: 2500 feet AGL
Clouds: broken clouds at 2500 feet AGL
broken clouds at 3400 feet AGL
Weather: no significant weather observed at this time

METAR text: EGGW 011250Z AUTO 30015KT 9999 -RA BKN024 OVC040 08/04 Q0997
Conditions at: EGGW (LUTON AIRPORT , GB) observed 1250 UTC 01 December 2021
Temperature: 8.0°C (46°F)
Dewpoint: 4.0°C (39°F) [RH = 76%]
Pressure (altimeter): 29.44 inches Hg (997.0 mb)
Winds: from the WNW (300 degrees) at 17 MPH (15 knots; 7.7 m/s)
Visibility: 6 or more miles (10+ km)
Ceiling: 2400 feet AGL
Clouds: broken clouds at 2400 feet AGL
overcast cloud deck at 4000 feet AGL
Weather: -RA  (light rain)

METAR text: EGGW 011220Z AUTO 29018KT 9999 BKN025 BKN029 OVC035 08/04 Q0997
Conditions at: EGGW (LUTON AIRPORT , GB) observed 1220 UTC 01 December 2021
Temperature: 8.0°C (46°F)
Dewpoint: 4.0°C (39°F) [RH = 76%]
Pressure (altimeter): 29.44 inches Hg (997.0 mb)
Winds: from the WNW (290 degrees) at 21 MPH (18 knots; 9.3 m/s)
Visibility: 6 or more miles (10+ km)
Ceiling: 2500 feet AGL
Clouds: broken clouds at 2500 feet AGL
broken clouds at 2900 feet AGL
overcast cloud deck at 3500 feet AGL
Weather: no significant weather observed at this time

METAR text: EGGW 011150Z 29019KT 9999 SCT025 BKN031 09/04 Q0996
Conditions at: EGGW (LUTON AIRPORT , GB) observed 1150 UTC 01 December 2021
Temperature: 9.0°C (48°F)
Dewpoint: 4.0°C (39°F) [RH = 71%]
Pressure (altimeter): 29.41 inches Hg (996.0 mb)
Winds: from the WNW (290 degrees) at 22 MPH (19 knots; 9.8 m/s)
Visibility: 6 or more miles (10+ km)
Ceiling: 3100 feet AGL
Clouds: scattered clouds at 2500 feet AGL
broken clouds at 3100 feet AGL
Weather: no significant weather observed at this time

METAR text: EGGW 011120Z 29020KT 9999 SCT023 BKN029 08/04 Q0996
Conditions at: EGGW (LUTON AIRPORT , GB) observed 1120 UTC 01 December 2021
Temperature: 8.0°C (46°F)
Dewpoint: 4.0°C (39°F) [RH = 76%]
Pressure (altimeter): 29.41 inches Hg (996.0 mb)
Winds: from the WNW (290 degrees) at 23 MPH (20 knots; 10.3 m/s)
Visibility: 6 or more miles (10+ km)
Ceiling: 2900 feet AGL
Clouds: scattered clouds at 2300 feet AGL
broken clouds at 2900 feet AGL
Weather: no significant weather observed at this time

METAR text: EGGW 011050Z AUTO 29021KT 9999 SCT022 BKN026 08/04 Q0996
Conditions at: EGGW (LUTON AIRPORT , GB) observed 1050 UTC 01 December 2021
Temperature: 8.0°C (46°F)
Dewpoint: 4.0°C (39°F) [RH = 76%]
Pressure (altimeter): 29.41 inches Hg (996.0 mb)
Winds: from the WNW (290 degrees) at 24 MPH (21 knots; 10.8 m/s)
Visibility: 6 or more miles (10+ km)
Ceiling: 2600 feet AGL
Clouds: scattered clouds at 2200 feet AGL
broken clouds at 2600 feet AGL
Weather: no significant weather observed at this time

METAR text: EGGW 011020Z AUTO 28014KT 9999 SCT021 BKN027 07/04 Q0996
Conditions at: EGGW (LUTON AIRPORT , GB) observed 1020 UTC 01 December 2021
Temperature: 7.0°C (45°F)
Dewpoint: 4.0°C (39°F) [RH = 81%]
Pressure (altimeter): 29.41 inches Hg (996.0 mb)
Winds: from the W (280 degrees) at 16 MPH (14 knots; 7.2 m/s)
Visibility: 6 or more miles (10+ km)
Ceiling: 2700 feet AGL
Clouds: scattered clouds at 2100 feet AGL
broken clouds at 2700 feet AGL
Weather: no significant weather observed at this time

METAR text: EGGW 010950Z AUTO 29016KT 9999 SCT020 BKN029 07/05 Q0996
Conditions at: EGGW (LUTON AIRPORT , GB) observed 0950 UTC 01 December 2021
Temperature: 7.0°C (45°F)
Dewpoint: 5.0°C (41°F) [RH = 87%]
Pressure (altimeter): 29.41 inches Hg (996.0 mb)
Winds: from the WNW (290 degrees) at 18 MPH (16 knots; 8.2 m/s)
Visibility: 6 or more miles (10+ km)
Ceiling: 2900 feet AGL
Clouds: scattered clouds at 2000 feet AGL
broken clouds at 2900 feet AGL
Weather: no significant weather observed at this time

METAR text: EGGW 010920Z AUTO 29018KT 9999 BKN017 07/04 Q0996
Conditions at: EGGW (LUTON AIRPORT , GB) observed 0920 UTC 01 December 2021
Temperature: 7.0°C (45°F)
Dewpoint: 4.0°C (39°F) [RH = 81%]
Pressure (altimeter): 29.41 inches Hg (996.0 mb)
Winds: from the WNW (290 degrees) at 21 MPH (18 knots; 9.3 m/s)
Visibility: 6 or more miles (10+ km)
Ceiling: 1700 feet AGL
Clouds: broken clouds at 1700 feet AGL
Weather: no significant weather observed at this time

METAR text: EGGW 010850Z AUTO 29016KT 9999 SCT019 BKN024 07/05 Q0996
Conditions at: EGGW (LUTON AIRPORT , GB) observed 0850 UTC 01 December 2021
Temperature: 7.0°C (45°F)
Dewpoint: 5.0°C (41°F) [RH = 87%]
Pressure (altimeter): 29.41 inches Hg (996.0 mb)
Winds: from the WNW (290 degrees) at 18 MPH (16 knots; 8.2 m/s)
Visibility: 6 or more miles (10+ km)
Ceiling: 2400 feet AGL
Clouds: scattered clouds at 1900 feet AGL
broken clouds at 2400 feet AGL
Weather: no significant weather observed at this time

METAR text: EGGW 010820Z AUTO 28016KT 9999 -RA FEW018 07/05 Q0996
Conditions at: EGGW (LUTON AIRPORT , GB) observed 0820 UTC 01 December 2021
Temperature: 7.0°C (45°F)
Dewpoint: 5.0°C (41°F) [RH = 87%]
Pressure (altimeter): 29.41 inches Hg (996.0 mb)
Winds: from the W (280 degrees) at 18 MPH (16 knots; 8.2 m/s)
Visibility: 6 or more miles (10+ km)
Ceiling: at least 12,000 feet AGL
Clouds: few clouds at 1800 feet AGL
Weather: -RA  (light rain)

METAR text: EGGW 010750Z AUTO 29017KT 9999 -RA FEW041 07/05 Q0996
Conditions at: EGGW (LUTON AIRPORT , GB) observed 0750 UTC 01 December 2021
Temperature: 7.0°C (45°F)
Dewpoint: 5.0°C (41°F) [RH = 87%]
Pressure (altimeter): 29.41 inches Hg (996.0 mb)
Winds: from the WNW (290 degrees) at 20 MPH (17 knots; 8.7 m/s)
Visibility: 6 or more miles (10+ km)
Ceiling: at least 12,000 feet AGL
Clouds: few clouds at 4100 feet AGL
Weather: -RA  (light rain)

METAR text: EGGW 010720Z AUTO 29019KT 9999 SCT013 BKN043 07/05 Q0995
Conditions at: EGGW (LUTON AIRPORT , GB) observed 0720 UTC 01 December 2021
Temperature: 7.0°C (45°F)
Dewpoint: 5.0°C (41°F) [RH = 87%]
Pressure (altimeter): 29.38 inches Hg (995.0 mb)
Winds: from the WNW (290 degrees) at 22 MPH (19 knots; 9.8 m/s)
Visibility: 6 or more miles (10+ km)
Ceiling: 4300 feet AGL
Clouds: scattered clouds at 1300 feet AGL
broken clouds at 4300 feet AGL
Weather: no significant weather observed at this time

METAR text: EGGW 010650Z AUTO 29017KT 9999 NCD 07/04 Q0995
Conditions at: EGGW (LUTON AIRPORT , GB) observed 0650 UTC 01 December 2021
Temperature: 7.0°C (45°F)
Dewpoint: 4.0°C (39°F) [RH = 81%]
Pressure (altimeter): 29.38 inches Hg (995.0 mb)
Winds: from the WNW (290 degrees) at 20 MPH (17 knots; 8.7 m/s)
Visibility: 6 or more miles (10+ km)
Ceiling: at least 12,000 feet AGL
Clouds: sky clear below 12,000 feet AGL
Weather: no significant weather observed at this time

METAR text: EGGW 010620Z AUTO 30019G29KT 9999 SCT019 BKN024 BKN048 08/04 Q0995
Conditions at: EGGW (LUTON AIRPORT , GB) observed 0620 UTC 01 December 2021
Temperature: 8.0°C (46°F)
Dewpoint: 4.0°C (39°F) [RH = 76%]
Pressure (altimeter): 29.38 inches Hg (995.0 mb)
Winds: from the WNW (300 degrees) at 22 MPH (19 knots; 9.8 m/s)
gusting to 33 MPH (29 knots; 14.9 m/s)
Visibility: 6 or more miles (10+ km)
Ceiling: 2400 feet AGL
Clouds: scattered clouds at 1900 feet AGL
broken clouds at 2400 feet AGL
broken clouds at 4800 feet AGL
Weather: no significant weather observed at this time

METAR text: EGGW 010550Z AUTO 31019KT 9999 BKN019 BKN026 08/05 Q0994
Conditions at: EGGW (LUTON AIRPORT , GB) observed 0550 UTC 01 December 2021
Temperature: 8.0°C (46°F)
Dewpoint: 5.0°C (41°F) [RH = 81%]
Pressure (altimeter): 29.35 inches Hg (994.0 mb)
Winds: from the NW (310 degrees) at 22 MPH (19 knots; 9.8 m/s)
Visibility: 6 or more miles (10+ km)
Ceiling: 1900 feet AGL
Clouds: broken clouds at 1900 feet AGL
broken clouds at 2600 feet AGL
Weather: no significant weather observed at this time

METAR text: EGGW 010520Z AUTO 30022G32KT 9999 -RA BKN024 BKN031 OVC045 09/05 Q0994
Conditions at: EGGW (LUTON AIRPORT , GB) observed 0520 UTC 01 December 2021
Temperature: 9.0°C (48°F)
Dewpoint: 5.0°C (41°F) [RH = 76%]
Pressure (altimeter): 29.35 inches Hg (994.0 mb)
Winds: from the WNW (300 degrees) at 25 MPH (22 knots; 11.3 m/s)
gusting to 37 MPH (32 knots; 16.5 m/s)
Visibility: 6 or more miles (10+ km)
Ceiling: 2400 feet AGL
Clouds: broken clouds at 2400 feet AGL
broken clouds at 3100 feet AGL
overcast cloud deck at 4500 feet AGL
Weather: -RA  (light rain)

METAR text: EGGW 010450Z AUTO 29019KT 9999 BKN027 BKN037 09/06 Q0994
Conditions at: EGGW (LUTON AIRPORT , GB) observed 0450 UTC 01 December 2021
Temperature: 9.0°C (48°F)
Dewpoint: 6.0°C (43°F) [RH = 81%]
Pressure (altimeter): 29.35 inches Hg (994.0 mb)
Winds: from the WNW (290 degrees) at 22 MPH (19 knots; 9.8 m/s)
Visibility: 6 or more miles (10+ km)
Ceiling: 2700 feet AGL
Clouds: broken clouds at 2700 feet AGL
broken clouds at 3700 feet AGL
Weather: no significant weather observed at this time

METAR text: EGGW 010420Z AUTO 29020KT 9999 SCT017 BKN023 BKN031 09/07 Q0993
Conditions at: EGGW (LUTON AIRPORT , GB) observed 0420 UTC 01 December 2021
Temperature: 9.0°C (48°F)
Dewpoint: 7.0°C (45°F) [RH = 87%]
Pressure (altimeter): 29.32 inches Hg (993.0 mb)
Winds: from the WNW (290 degrees) at 23 MPH (20 knots; 10.3 m/s)
Visibility: 6 or more miles (10+ km)
Ceiling: 2300 feet AGL
Clouds: scattered clouds at 1700 feet AGL
broken clouds at 2300 feet AGL
broken clouds at 3100 feet AGL
Weather: no significant weather observed at this time

METAR text: EGGW 010350Z AUTO 26021KT 9999 SCT016 BKN021 OVC027 09/07 Q0993
Conditions at: EGGW (LUTON AIRPORT , GB) observed 0350 UTC 01 December 2021
Temperature: 9.0°C (48°F)
Dewpoint: 7.0°C (45°F) [RH = 87%]
Pressure (altimeter): 29.32 inches Hg (993.0 mb)
Winds: from the W (260 degrees) at 24 MPH (21 knots; 10.8 m/s)
Visibility: 6 or more miles (10+ km)
Ceiling: 2100 feet AGL
Clouds: scattered clouds at 1600 feet AGL
broken clouds at 2100 feet AGL
overcast cloud deck at 2700 feet AGL
Weather: no significant weather observed at this time

METAR text: EGGW 010320Z AUTO 25020KT 9999 SCT030 09/07 Q0993
Conditions at: EGGW (LUTON AIRPORT , GB) observed 0320 UTC 01 December 2021
Temperature: 9.0°C (48°F)
Dewpoint: 7.0°C (45°F) [RH = 87%]
Pressure (altimeter): 29.32 inches Hg (993.0 mb)
Winds: from the WSW (250 degrees) at 23 MPH (20 knots; 10.3 m/s)
Visibility: 6 or more miles (10+ km)
Ceiling: at least 12,000 feet AGL
Clouds: scattered clouds at 3000 feet AGL
Weather: no significant weather observed at this time

METAR text: EGGW 010250Z AUTO 25020KT 9999 FEW016 SCT022 BKN034 09/08 Q0993
Conditions at: EGGW (LUTON AIRPORT , GB) observed 0250 UTC 01 December 2021
Temperature: 9.0°C (48°F)
Dewpoint: 8.0°C (46°F) [RH = 93%]
Pressure (altimeter): 29.32 inches Hg (993.0 mb)
Winds: from the WSW (250 degrees) at 23 MPH (20 knots; 10.3 m/s)
Visibility: 6 or more miles (10+ km)
Ceiling: 3400 feet AGL
Clouds: few clouds at 1600 feet AGL
scattered clouds at 2200 feet AGL
broken clouds at 3400 feet AGL
Weather: no significant weather observed at this time

METAR text: EGGW 010220Z AUTO 25018KT 9999 SCT013 BKN020 BKN028 10/08 Q0994
Conditions at: EGGW (LUTON AIRPORT , GB) observed 0220 UTC 01 December 2021
Temperature: 10.0°C (50°F)
Dewpoint: 8.0°C (46°F) [RH = 87%]
Pressure (altimeter): 29.35 inches Hg (994.0 mb)
Winds: from the WSW (250 degrees) at 21 MPH (18 knots; 9.3 m/s)
Visibility: 6 or more miles (10+ km)
Ceiling: 2000 feet AGL
Clouds: scattered clouds at 1300 feet AGL
broken clouds at 2000 feet AGL
broken clouds at 2800 feet AGL
Weather: no significant weather observed at this time

METAR text: EGGW 010150Z AUTO 24019KT 9999 SCT011 BKN033 BKN042 10/08 Q0994
Conditions at: EGGW (LUTON AIRPORT , GB) observed 0150 UTC 01 December 2021
Temperature: 10.0°C (50°F)
Dewpoint: 8.0°C (46°F) [RH = 87%]
Pressure (altimeter): 29.35 inches Hg (994.0 mb)
Winds: from the WSW (240 degrees) at 22 MPH (19 knots; 9.8 m/s)
Visibility: 6 or more miles (10+ km)
Ceiling: 3300 feet AGL
Clouds: scattered clouds at 1100 feet AGL
broken clouds at 3300 feet AGL
broken clouds at 4200 feet AGL
Weather: no significant weather observed at this time

METAR text: EGGW 010120Z AUTO 24019KT 9999 BKN012 BKN016 OVC033 10/09 Q0995
Conditions at: EGGW (LUTON AIRPORT , GB) observed 0120 UTC 01 December 2021
Temperature: 10.0°C (50°F)
Dewpoint: 9.0°C (48°F) [RH = 93%]
Pressure (altimeter): 29.38 inches Hg (995.0 mb)
Winds: from the WSW (240 degrees) at 22 MPH (19 knots; 9.8 m/s)
Visibility: 6 or more miles (10+ km)
Ceiling: 1200 feet AGL
Clouds: broken clouds at 1200 feet AGL
broken clouds at 1600 feet AGL
overcast cloud deck at 3300 feet AGL
Weather: no significant weather observed at this time

METAR text: EGGW 010050Z AUTO 23018G28KT 9999 BKN014 OVC021 10/09 Q0995
Conditions at: EGGW (LUTON AIRPORT , GB) observed 0050 UTC 01 December 2021
Temperature: 10.0°C (50°F)
Dewpoint: 9.0°C (48°F) [RH = 93%]
Pressure (altimeter): 29.38 inches Hg (995.0 mb)
Winds: from the SW (230 degrees) at 21 MPH (18 knots; 9.3 m/s)
gusting to 32 MPH (28 knots; 14.4 m/s)
Visibility: 6 or more miles (10+ km)
Ceiling: 1400 feet AGL
Clouds: broken clouds at 1400 feet AGL
overcast cloud deck at 2100 feet AGL
Weather: no significant weather observed at this time

METAR text: EGGW 010020Z AUTO 22017G27KT 9999 BKN014 OVC019 10/08 Q0996
Conditions at: EGGW (LUTON AIRPORT , GB) observed 0020 UTC 01 December 2021
Temperature: 10.0°C (50°F)
Dewpoint: 8.0°C (46°F) [RH = 87%]
Pressure (altimeter): 29.41 inches Hg (996.0 mb)
Winds: from the SW (220 degrees) at 20 MPH (17 knots; 8.7 m/s)
gusting to 31 MPH (27 knots; 13.9 m/s)
Visibility: 6 or more miles (10+ km)
Ceiling: 1400 feet AGL
Clouds: broken clouds at 1400 feet AGL
overcast cloud deck at 1900 feet AGL
Weather: no significant weather observed at this time

METAR text: EGGW 302350Z AUTO 22017KT 9999 OVC013 09/08 Q0997
Conditions at: EGGW (LUTON AIRPORT , GB) observed 2350 UTC 30 November 2021
Temperature: 9.0°C (48°F)
Dewpoint: 8.0°C (46°F) [RH = 93%]
Pressure (altimeter): 29.44 inches Hg (997.0 mb)
Winds: from the SW (220 degrees) at 20 MPH (17 knots; 8.7 m/s)
Visibility: 6 or more miles (10+ km)
Ceiling: 1300 feet AGL
Clouds: overcast cloud deck at 1300 feet AGL
Weather: no significant weather observed at this time

METAR text: EGGW 302320Z AUTO 22015KT 9999 -RA BKN014/// //////TCU 09/08 Q0998
Conditions at: EGGW (LUTON AIRPORT , GB) observed 2320 UTC 30 November 2021
Temperature: 9.0°C (48°F)
Dewpoint: 8.0°C (46°F) [RH = 93%]
Pressure (altimeter): 29.47 inches Hg (998.0 mb)
Winds: from the SW (220 degrees) at 17 MPH (15 knots; 7.7 m/s)
Visibility: 6 or more miles (10+ km)
Ceiling: 1400 feet AGL
Clouds: broken clouds at 1400 feet AGL
Weather: -RA  (light rain)

METAR text: EGGW 302250Z AUTO 22015KT 9999 OVC013 10/08 Q0999
Conditions at: EGGW (LUTON AIRPORT , GB) observed 2250 UTC 30 November 2021
Temperature: 10.0°C (50°F)
Dewpoint: 8.0°C (46°F) [RH = 87%]
Pressure (altimeter): 29.50 inches Hg (999.0 mb)
Winds: from the SW (220 degrees) at 17 MPH (15 knots; 7.7 m/s)
Visibility: 6 or more miles (10+ km)
Ceiling: 1300 feet AGL
Clouds: overcast cloud deck at 1300 feet AGL
Weather: no significant weather observed at this time

METAR text: EGGW 302220Z AUTO 22015KT 9999 BKN013 OVC019 10/08 Q0999
Conditions at: EGGW (LUTON AIRPORT , GB) observed 2220 UTC 30 November 2021
Temperature: 10.0°C (50°F)
Dewpoint: 8.0°C (46°F) [RH = 87%]
Pressure (altimeter): 29.50 inches Hg (999.0 mb)
Winds: from the SW (220 degrees) at 17 MPH (15 knots; 7.7 m/s)
Visibility: 6 or more miles (10+ km)
Ceiling: 1300 feet AGL
Clouds: broken clouds at 1300 feet AGL
overcast cloud deck at 1900 feet AGL
Weather: no significant weather observed at this time

METAR text: EGGW 302150Z AUTO 22015KT 9999 OVC016 10/08 Q1000
Conditions at: EGGW (LUTON AIRPORT , GB) observed 2150 UTC 30 November 2021
Temperature: 10.0°C (50°F)
Dewpoint: 8.0°C (46°F) [RH = 87%]
Pressure (altimeter): 29.53 inches Hg (1000.0 mb)
Winds: from the SW (220 degrees) at 17 MPH (15 knots; 7.7 m/s)
Visibility: 6 or more miles (10+ km)
Ceiling: 1600 feet AGL
Clouds: overcast cloud deck at 1600 feet AGL
Weather: no significant weather observed at this time

METAR text: EGGW 302120Z AUTO 22015KT 190V250 9999 OVC015 10/08 Q1001
Conditions at: EGGW (LUTON AIRPORT , GB) observed 2120 UTC 30 November 2021
Temperature: 10.0°C (50°F)
Dewpoint: 8.0°C (46°F) [RH = 87%]
Pressure (altimeter): 29.56 inches Hg (1001.0 mb)
Winds: from the SW (220 degrees) at 17 MPH (15 knots; 7.7 m/s)
Visibility: 6 or more miles (10+ km)
Ceiling: 1500 feet AGL
Clouds: overcast cloud deck at 1500 feet AGL
Weather: no significant weather observed at this time

METAR text: EGGW 302050Z AUTO 23017KT 9999 OVC015 10/08 Q1002
Conditions at: EGGW (LUTON AIRPORT , GB) observed 2050 UTC 30 November 2021
Temperature: 10.0°C (50°F)
Dewpoint: 8.0°C (46°F) [RH = 87%]
Pressure (altimeter): 29.59 inches Hg (1002.0 mb)
Winds: from the SW (230 degrees) at 20 MPH (17 knots; 8.7 m/s)
Visibility: 6 or more miles (10+ km)
Ceiling: 1500 feet AGL
Clouds: overcast cloud deck at 1500 feet AGL
Weather: no significant weather observed at this time

METAR text: EGGW 302020Z AUTO 23015KT 9999 OVC016 10/08 Q1002
Conditions at: EGGW (LUTON AIRPORT , GB) observed 2020 UTC 30 November 2021
Temperature: 10.0°C (50°F)
Dewpoint: 8.0°C (46°F) [RH = 87%]
Pressure (altimeter): 29.59 inches Hg (1002.0 mb)
Winds: from the SW (230 degrees) at 17 MPH (15 knots; 7.7 m/s)
Visibility: 6 or more miles (10+ km)
Ceiling: 1600 feet AGL
Clouds: overcast cloud deck at 1600 feet AGL
Weather: no significant weather observed at this time

METAR text: EGGW 301950Z AUTO 23017KT 9999 BKN017 OVC024 11/08 Q1003
Conditions at: EGGW (LUTON AIRPORT , GB) observed 1950 UTC 30 November 2021
Temperature: 11.0°C (52°F)
Dewpoint: 8.0°C (46°F) [RH = 82%]
Pressure (altimeter): 29.62 inches Hg (1003.0 mb)
Winds: from the SW (230 degrees) at 20 MPH (17 knots; 8.7 m/s)
Visibility: 6 or more miles (10+ km)
Ceiling: 1700 feet AGL
Clouds: broken clouds at 1700 feet AGL
overcast cloud deck at 2400 feet AGL
Weather: no significant weather observed at this time

METAR text: EGGW 301920Z AUTO 24017KT 9999 BKN014 11/08 Q1004
Conditions at: EGGW (LUTON AIRPORT , GB) observed 1920 UTC 30 November 2021
Temperature: 11.0°C (52°F)
Dewpoint: 8.0°C (46°F) [RH = 82%]
Pressure (altimeter): 29.65 inches Hg (1004.0 mb)
Winds: from the WSW (240 degrees) at 20 MPH (17 knots; 8.7 m/s)
Visibility: 6 or more miles (10+ km)
Ceiling: 1400 feet AGL
Clouds: broken clouds at 1400 feet AGL
Weather: no significant weather observed at this time

METAR text: EGGW 301850Z AUTO 24019KT 9999 BKN011 OVC016 11/09 Q1005
Conditions at: EGGW (LUTON AIRPORT , GB) observed 1850 UTC 30 November 2021
Temperature: 11.0°C (52°F)
Dewpoint: 9.0°C (48°F) [RH = 87%]
Pressure (altimeter): 29.68 inches Hg (1005.0 mb)
Winds: from the WSW (240 degrees) at 22 MPH (19 knots; 9.8 m/s)
Visibility: 6 or more miles (10+ km)
Ceiling: 1100 feet AGL
Clouds: broken clouds at 1100 feet AGL
overcast cloud deck at 1600 feet AGL
Weather: no significant weather observed at this time

METAR text: EGGW 301820Z AUTO 24017KT 9999 OVC011 10/09 Q1005
Conditions at: EGGW (LUTON AIRPORT , GB) observed 1820 UTC 30 November 2021
Temperature: 10.0°C (50°F)
Dewpoint: 9.0°C (48°F) [RH = 93%]
Pressure (altimeter): 29.68 inches Hg (1005.0 mb)
Winds: from the WSW (240 degrees) at 20 MPH (17 knots; 8.7 m/s)
Visibility: 6 or more miles (10+ km)
Ceiling: 1100 feet AGL
Clouds: overcast cloud deck at 1100 feet AGL
Weather: no significant weather observed at this time

METAR text: EGGW 301750Z AUTO 24016KT 9999 OVC011 10/08 Q1006
Conditions at: EGGW (LUTON AIRPORT , GB) observed 1750 UTC 30 November 2021
Temperature: 10.0°C (50°F)
Dewpoint: 8.0°C (46°F) [RH = 87%]
Pressure (altimeter): 29.70 inches Hg (1006.0 mb)
Winds: from the WSW (240 degrees) at 18 MPH (16 knots; 8.2 m/s)
Visibility: 6 or more miles (10+ km)
Ceiling: 1100 feet AGL
Clouds: overcast cloud deck at 1100 feet AGL
Weather: no significant weather observed at this time

METAR text: EGGW 301720Z AUTO 24017KT 9999 BKN013/// OVC017/// 10/08 Q1006
Conditions at: EGGW (LUTON AIRPORT , GB) observed 1720 UTC 30 November 2021
Temperature: 10.0°C (50°F)
Dewpoint: 8.0°C (46°F) [RH = 87%]
Pressure (altimeter): 29.70 inches Hg (1006.0 mb)
Winds: from the WSW (240 degrees) at 20 MPH (17 knots; 8.7 m/s)
Visibility: 6 or more miles (10+ km)
Ceiling: 1300 feet AGL
Clouds: broken clouds at 1300 feet AGL
overcast cloud deck at 1700 feet AGL
Weather: no significant weather observed at this time

METAR text: EGGW 301650Z 24013KT 9999 BKN013 OVC019 10/08 Q1007
Conditions at: EGGW (LUTON AIRPORT , GB) observed 1650 UTC 30 November 2021
Temperature: 10.0°C (50°F)
Dewpoint: 8.0°C (46°F) [RH = 87%]
Pressure (altimeter): 29.73 inches Hg (1007.0 mb)
Winds: from the WSW (240 degrees) at 15 MPH (13 knots; 6.7 m/s)
Visibility: 6 or more miles (10+ km)
Ceiling: 1300 feet AGL
Clouds: broken clouds at 1300 feet AGL
overcast cloud deck at 1900 feet AGL
Weather: no significant weather observed at this time

METAR text: EGGW 301620Z 25013KT 9999 BKN015 10/08 Q1008
Conditions at: EGGW (LUTON AIRPORT , GB) observed 1620 UTC 30 November 2021
Temperature: 10.0°C (50°F)
Dewpoint: 8.0°C (46°F) [RH = 87%]
Pressure (altimeter): 29.76 inches Hg (1008.0 mb)
Winds: from the WSW (250 degrees) at 15 MPH (13 knots; 6.7 m/s)
Visibility: 6 or more miles (10+ km)
Ceiling: 1500 feet AGL
Clouds: broken clouds at 1500 feet AGL
Weather: no significant weather observed at this time

METAR text: EGGW 301550Z 24013KT 9999 SCT015 10/09 Q1008
Conditions at: EGGW (LUTON AIRPORT , GB) observed 1550 UTC 30 November 2021
Temperature: 10.0°C (50°F)
Dewpoint: 9.0°C (48°F) [RH = 93%]
Pressure (altimeter): 29.76 inches Hg (1008.0 mb)
Winds: from the WSW (240 degrees) at 15 MPH (13 knots; 6.7 m/s)
Visibility: 6 or more miles (10+ km)
Ceiling: at least 12,000 feet AGL
Clouds: scattered clouds at 1500 feet AGL
Weather: no significant weather observed at this time

METAR text: EGGW 301520Z 24012KT 9999 SCT012 10/09 Q1008
Conditions at: EGGW (LUTON AIRPORT , GB) observed 1520 UTC 30 November 2021
Temperature: 10.0°C (50°F)
Dewpoint: 9.0°C (48°F) [RH = 93%]
Pressure (altimeter): 29.76 inches Hg (1008.0 mb)
Winds: from the WSW (240 degrees) at 14 MPH (12 knots; 6.2 m/s)
Visibility: 6 or more miles (10+ km)
Ceiling: at least 12,000 feet AGL
Clouds: scattered clouds at 1200 feet AGL
Weather: no significant weather observed at this time

METAR text: EGGW 301450Z 24013KT 9999 FEW012 10/09 Q1009
Conditions at: EGGW (LUTON AIRPORT , GB) observed 1450 UTC 30 November 2021
Temperature: 10.0°C (50°F)
Dewpoint: 9.0°C (48°F) [RH = 93%]
Pressure (altimeter): 29.79 inches Hg (1009.0 mb)
Winds: from the WSW (240 degrees) at 15 MPH (13 knots; 6.7 m/s)
Visibility: 6 or more miles (10+ km)
Ceiling: at least 12,000 feet AGL
Clouds: few clouds at 1200 feet AGL
Weather: no significant weather observed at this time

METAR text: EGGW 301420Z 25013KT 9999 BKN012 10/09 Q1009
Conditions at: EGGW (LUTON AIRPORT , GB) observed 1420 UTC 30 November 2021
Temperature: 10.0°C (50°F)
Dewpoint: 9.0°C (48°F) [RH = 93%]
Pressure (altimeter): 29.79 inches Hg (1009.0 mb)
Winds: from the WSW (250 degrees) at 15 MPH (13 knots; 6.7 m/s)
Visibility: 6 or more miles (10+ km)
Ceiling: 1200 feet AGL
Clouds: broken clouds at 1200 feet AGL
Weather: no significant weather observed at this time

METAR text: EGGW 301350Z AUTO 25012KT 9999 OVC011 10/09 Q1010
Conditions at: EGGW (LUTON AIRPORT , GB) observed 1350 UTC 30 November 2021
Temperature: 10.0°C (50°F)
Dewpoint: 9.0°C (48°F) [RH = 93%]
Pressure (altimeter): 29.82 inches Hg (1010.0 mb)
Winds: from the WSW (250 degrees) at 14 MPH (12 knots; 6.2 m/s)
Visibility: 6 or more miles (10+ km)
Ceiling: 1100 feet AGL
Clouds: overcast cloud deck at 1100 feet AGL
Weather: no significant weather observed at this time

METAR text: EGGW 301320Z AUTO 26014KT 9999 BKN013 10/09 Q1010
Conditions at: EGGW (LUTON AIRPORT , GB) observed 1320 UTC 30 November 2021
Temperature: 10.0°C (50°F)
Dewpoint: 9.0°C (48°F) [RH = 93%]
Pressure (altimeter): 29.82 inches Hg (1010.0 mb)
Winds: from the W (260 degrees) at 16 MPH (14 knots; 7.2 m/s)
Visibility: 6 or more miles (10+ km)
Ceiling: 1300 feet AGL
Clouds: broken clouds at 1300 feet AGL
Weather: no significant weather observed at this time

METAR text: EGGW 301250Z AUTO 26015KT 9999 FEW011 BKN015 10/09 Q1010
Conditions at: EGGW (LUTON AIRPORT , GB) observed 1250 UTC 30 November 2021
Temperature: 10.0°C (50°F)
Dewpoint: 9.0°C (48°F) [RH = 93%]
Pressure (altimeter): 29.82 inches Hg (1010.0 mb)
Winds: from the W (260 degrees) at 17 MPH (15 knots; 7.7 m/s)
Visibility: 6 or more miles (10+ km)
Ceiling: 1500 feet AGL
Clouds: few clouds at 1100 feet AGL
broken clouds at 1500 feet AGL
Weather: no significant weather observed at this time

METAR text: EGGW 301220Z AUTO 27015KT 9999 BKN011 10/09 Q1010
Conditions at: EGGW (LUTON AIRPORT , GB) observed 1220 UTC 30 November 2021
Temperature: 10.0°C (50°F)
Dewpoint: 9.0°C (48°F) [RH = 93%]
Pressure (altimeter): 29.82 inches Hg (1010.0 mb)
Winds: from the W (270 degrees) at 17 MPH (15 knots; 7.7 m/s)
Visibility: 6 or more miles (10+ km)
Ceiling: 1100 feet AGL
Clouds: broken clouds at 1100 feet AGL
Weather: no significant weather observed at this time

METAR text: EGGW 301150Z AUTO 27017KT 9999 SCT011 10/08 Q1010
Conditions at: EGGW (LUTON AIRPORT , GB) observed 1150 UTC 30 November 2021
Temperature: 10.0°C (50°F)
Dewpoint: 8.0°C (46°F) [RH = 87%]
Pressure (altimeter): 29.82 inches Hg (1010.0 mb)
Winds: from the W (270 degrees) at 20 MPH (17 knots; 8.7 m/s)
Visibility: 6 or more miles (10+ km)
Ceiling: at least 12,000 feet AGL
Clouds: scattered clouds at 1100 feet AGL
Weather: no significant weather observed at this time

METAR text: EGGW 301120Z AUTO 26017KT 9999 FEW020 10/08 Q1010
Conditions at: EGGW (LUTON AIRPORT , GB) observed 1120 UTC 30 November 2021
Temperature: 10.0°C (50°F)
Dewpoint: 8.0°C (46°F) [RH = 87%]
Pressure (altimeter): 29.82 inches Hg (1010.0 mb)
Winds: from the W (260 degrees) at 20 MPH (17 knots; 8.7 m/s)
Visibility: 6 or more miles (10+ km)
Ceiling: at least 12,000 feet AGL
Clouds: few clouds at 2000 feet AGL
Weather: no significant weather observed at this time

METAR text: EGGW 301050Z AUTO 26018KT 9999 OVC017 10/08 Q1011
Conditions at: EGGW (LUTON AIRPORT , GB) observed 1050 UTC 30 November 2021
Temperature: 10.0°C (50°F)
Dewpoint: 8.0°C (46°F) [RH = 87%]
Pressure (altimeter): 29.85 inches Hg (1011.0 mb)
Winds: from the W (260 degrees) at 21 MPH (18 knots; 9.3 m/s)
Visibility: 6 or more miles (10+ km)
Ceiling: 1700 feet AGL
Clouds: overcast cloud deck at 1700 feet AGL
Weather: no significant weather observed at this time

Forecast for: EGGW (LUTON AIRPORT , GB)
Text: TAF EGGW 011655Z 0118/0218 32012KT 9999 SCT018
Forecast period: 1800 UTC 01 December 2021 to 1800 UTC 02 December 2021
Forecast type: FROM: standard forecast or significant change
Winds: from the NW (320 degrees) at 14 MPH (12 knots; 6.2 m/s)
Visibility: 6 or more miles (10+ km)
Ceiling: at least 12,000 feet AGL
Clouds: scattered clouds at 1800 feet AGL
Weather: no significant weather forecast for this period
Text: TEMPO 0118/0120 6000 SHRA BKN010
Forecast period: 1800 to 2000 UTC 01 December 2021
Forecast type: TEMPORARY: The following changes expected for less than half the time period
Visibility: 4 miles (6 km)
Ceiling: 1000 feet AGL
Clouds: broken clouds at 1000 feet AGL
Weather: SHRA  (rain showers)
Text: PROB40
Forecast period: 1900 UTC 01 December 2021 to 1000 UTC 02 December 2021
Forecast type: TEMPORARY: The following changes expected for less than half the time period
Winds: from the NNW (330 degrees) at 17 MPH (15 knots; 7.7 m/s)
gusting to 29 MPH (25 knots; 12.9 m/s)
Visibility: missing
Ceiling: unknown
Clouds: missing
Weather: no significant weather forecast for this period
Text: TEMPO 0119/0210 33015G25KT
Forecast period: 2000 to 2200 UTC 01 December 2021
Forecast type: TEMPORARY: The following changes expected for less than half the time period
Visibility: missing
Ceiling: 1200 feet AGL
Clouds: broken clouds at 1200 feet AGL
Weather: no significant weather forecast for this period